Santa Coloma de Gramanet, Spain
Current Conditions -  °F | °C
As of 5:30 AM on Wednesday 28 Jan 2015 (Local Time) from LEBL Reporting Station
Few Clouds Few Clouds  
Wind Chill: 34°   Ceiling: Unl
Heat Index: 41°   Visibility: 6mi
Dew Point: 34°   Wind: 13mph
Humidity: 76%   Direction: 320°NW
Pressure: 30.15"   Gusts: NA
Location:  41.45°N, 2.22°E
Report Text: LEBL 280430Z 32011KT 9999 FEW030 05/01 Q1021 NOSIG
Loading
Personal Weather Stations






























Interactive Weather Map New forecast layout! Learn more

10-Day Weather Forecast

Advertisements
Track Severe Weather on mobile